createdAt,value
2019-01-10T00:00:13.040Z,8.73
2019-01-10T00:02:41.411Z,8.77
2019-01-10T00:05:10.932Z,8.90
2019-01-10T00:07:39.336Z,13.63
2019-01-10T00:10:10.373Z,10.00
2019-01-10T00:12:39.549Z,15.33
2019-01-10T00:15:11.454Z,14.03
2019-01-10T00:17:39.746Z,12.73
2019-01-10T00:20:10.040Z,12.17
2019-01-10T00:22:38.394Z,7.00
2019-01-10T00:25:09.130Z,7.07
2019-01-10T00:27:37.484Z,13.83
2019-01-10T00:30:09.036Z,11.70
2019-01-10T00:32:37.316Z,13.23
2019-01-10T00:35:07.442Z,10.53
2019-01-10T00:37:35.793Z,12.27
2019-01-10T00:40:10.111Z,12.53
2019-01-10T00:42:38.394Z,10.07
2019-01-10T00:45:10.101Z,9.97
2019-01-10T00:47:38.458Z,9.30
2019-01-10T00:50:12.865Z,13.07
2019-01-10T00:52:41.219Z,16.67
2019-01-10T00:55:09.529Z,11.03
2019-01-10T00:57:37.880Z,10.17
2019-01-10T01:00:12.268Z,11.60
2019-01-10T01:02:40.619Z,12.33
2019-01-10T01:05:11.531Z,7.43
2019-01-10T01:07:39.903Z,13.63
2019-01-10T01:10:11.641Z,12.10
2019-01-10T01:12:39.995Z,11.40
2019-01-10T01:15:10.907Z,8.13
2019-01-10T01:17:39.314Z,9.13
2019-01-10T01:20:09.428Z,14.03
2019-01-10T01:22:37.724Z,14.13
2019-01-10T01:25:08.610Z,9.30
2019-01-10T01:27:37.001Z,16.37
2019-01-10T01:30:11.721Z,12.17
2019-01-10T01:32:40.207Z,6.27
2019-01-10T01:35:09.013Z,14.20
2019-01-10T01:37:37.374Z,13.80
2019-01-10T01:40:09.112Z,19.07
2019-01-10T01:42:37.501Z,17.03
2019-01-10T01:45:08.095Z,14.27
2019-01-10T01:47:36.466Z,5.63
2019-01-10T01:50:08.277Z,9.83
2019-01-10T01:52:36.574Z,8.47
2019-01-10T01:55:05.499Z,11.03
2019-01-10T01:57:33.890Z,11.83
2019-01-10T02:00:02.248Z,11.63
2019-01-10T02:02:30.620Z,12.67
2019-01-10T02:04:58.984Z,12.63
2019-01-10T02:07:27.306Z,13.20
2019-01-10T02:09:55.608Z,10.10
2019-01-10T02:12:23.882Z,7.67
2019-01-10T02:14:52.187Z,5.10
2019-01-10T02:17:20.470Z,8.33
2019-01-10T02:19:48.778Z,6.53
2019-01-10T02:22:17.124Z,9.00
2019-01-10T02:24:45.420Z,7.03
2019-01-10T02:27:13.774Z,10.17
2019-01-10T02:29:42.270Z,13.70
2019-01-10T02:32:10.610Z,5.67
2019-01-10T02:34:38.894Z,18.80
2019-01-10T02:37:07.310Z,14.10
2019-01-10T02:39:35.606Z,10.13
2019-01-10T02:42:03.982Z,7.53
2019-01-10T02:44:32.512Z,13.73
2019-01-10T02:47:00.944Z,10.03
2019-01-10T02:49:29.224Z,12.90
2019-01-10T02:51:57.651Z,6.90
2019-01-10T02:54:26.025Z,10.00
2019-01-10T02:56:54.308Z,8.77
2019-01-10T02:59:22.601Z,12.53
2019-01-10T03:01:50.971Z,8.23
2019-01-10T03:04:19.350Z,12.90
2019-01-10T03:06:47.699Z,8.27
2019-01-10T03:09:16.085Z,10.30
2019-01-10T03:11:44.361Z,13.37
2019-01-10T03:14:12.699Z,10.43
2019-01-10T03:16:40.971Z,11.90
2019-01-10T03:19:09.288Z,9.73
2019-01-10T03:21:37.633Z,11.30
2019-01-10T03:24:06.004Z,17.20
2019-01-10T03:26:34.357Z,12.47
2019-01-10T03:29:02.669Z,8.97
2019-01-10T03:31:31.096Z,16.03
2019-01-10T03:33:59.563Z,11.87
2019-01-10T03:36:27.849Z,10.00
2019-01-10T03:38:56.225Z,17.87
2019-01-10T03:41:24.504Z,11.50
2019-01-10T03:43:52.884Z,15.37
2019-01-10T03:46:21.248Z,9.87
2019-01-10T03:48:49.629Z,7.37
2019-01-10T03:51:17.926Z,11.40
2019-01-10T03:53:46.360Z,6.70
2019-01-10T03:56:14.663Z,19.93
2019-01-10T03:58:43.043Z,11.07
2019-01-10T04:01:11.346Z,16.13
2019-01-10T04:03:39.715Z,11.97
2019-01-10T04:06:08.017Z,8.07
2019-01-10T04:08:36.301Z,9.53
2019-01-10T04:11:04.672Z,10.07
2019-01-10T04:13:33.023Z,10.47
2019-01-10T04:16:01.332Z,11.77
2019-01-10T04:18:29.748Z,17.03
2019-01-10T04:20:58.044Z,11.90
2019-01-10T04:23:26.440Z,7.00
2019-01-10T04:25:54.811Z,9.40
2019-01-10T04:28:23.163Z,13.33
2019-01-10T04:30:51.541Z,13.00
2019-01-10T04:33:19.833Z,18.77
2019-01-10T04:35:48.208Z,16.07
2019-01-10T04:38:16.560Z,11.70
2019-01-10T04:40:44.934Z,10.00
2019-01-10T04:43:13.307Z,14.87
2019-01-10T04:45:41.688Z,7.40
2019-01-10T04:48:09.988Z,12.30
2019-01-10T04:50:38.362Z,10.93
2019-01-10T04:53:06.649Z,14.40
2019-01-10T04:55:35.014Z,13.50
2019-01-10T04:58:03.330Z,8.10
2019-01-10T05:00:31.691Z,17.33
2019-01-10T05:02:59.986Z,14.33
2019-01-10T05:05:28.269Z,11.57
2019-01-10T05:07:56.579Z,13.90
2019-01-10T05:10:24.947Z,15.23
2019-01-10T05:12:53.310Z,13.97
2019-01-10T05:15:21.692Z,12.33
2019-01-10T05:17:50.065Z,20.80
2019-01-10T05:20:19.016Z,16.03
2019-01-10T05:22:47.458Z,27.50
2019-01-10T05:25:15.806Z,19.60
2019-01-10T05:27:44.168Z,15.03
2019-01-10T05:30:18.181Z,14.97
2019-01-10T05:32:46.571Z,14.47
2019-01-10T05:35:17.434Z,9.70
2019-01-10T05:37:45.743Z,13.93
2019-01-10T05:40:14.020Z,21.73
2019-01-10T05:42:42.387Z,14.47
2019-01-10T05:45:15.665Z,11.50
2019-01-10T05:47:44.019Z,14.47
2019-01-10T05:50:14.374Z,13.93
2019-01-10T05:52:42.668Z,12.83
2019-01-10T05:55:13.847Z,16.07
2019-01-10T05:57:42.733Z,12.23
2019-01-10T06:00:14.577Z,10.53
2019-01-10T06:02:42.858Z,13.33
2019-01-10T06:05:11.159Z,10.97
2019-01-10T06:07:39.525Z,21.20
2019-01-10T06:10:14.117Z,11.13
2019-01-10T06:12:42.412Z,17.73
2019-01-10T06:15:13.647Z,15.03
2019-01-10T06:17:42.039Z,21.43
2019-01-10T06:20:13.254Z,16.73
2019-01-10T06:22:41.660Z,14.53
2019-01-10T06:25:09.985Z,16.07
2019-01-10T06:27:38.460Z,15.37
2019-01-10T06:30:15.534Z,12.80
2019-01-10T06:32:43.822Z,21.83
2019-01-10T06:35:12.200Z,20.73
2019-01-10T06:37:40.491Z,17.17
2019-01-10T06:40:11.715Z,15.73
2019-01-10T06:42:40.011Z,19.00
2019-01-10T06:45:10.726Z,17.63
2019-01-10T06:47:39.213Z,19.67
2019-01-10T06:50:10.217Z,14.13
2019-01-10T06:52:38.508Z,14.90
2019-01-10T06:55:09.148Z,18.00
2019-01-10T06:57:37.434Z,11.77
2019-01-10T07:00:09.076Z,12.97
2019-01-10T07:02:37.490Z,17.43
2019-01-10T07:05:06.062Z,8.67
2019-01-10T07:07:34.412Z,16.00
2019-01-10T07:10:20.376Z,11.37
2019-01-10T07:12:48.752Z,15.60
2019-01-10T07:15:17.038Z,16.43
2019-01-10T07:17:45.456Z,15.80
2019-01-10T07:20:13.851Z,12.00
2019-01-10T07:22:47.416Z,19.03
2019-01-10T07:25:15.728Z,17.77
2019-01-10T07:27:44.156Z,18.80
2019-01-10T07:30:18.530Z,16.83
2019-01-10T07:32:46.823Z,11.87
2019-01-10T07:35:15.197Z,18.27
2019-01-10T07:37:47.819Z,16.77
2019-01-10T07:40:16.294Z,15.40
2019-01-10T07:42:44.662Z,20.93
2019-01-10T07:45:18.609Z,13.40
2019-01-10T07:47:47.264Z,18.23
2019-01-10T07:50:16.965Z,16.87
2019-01-10T07:52:45.347Z,20.23
2019-01-10T07:55:13.826Z,19.13
2019-01-10T07:57:42.471Z,13.53
2019-01-10T08:00:14.239Z,26.73
2019-01-10T08:02:42.571Z,27.63
2019-01-10T08:05:10.940Z,20.50
2019-01-10T08:07:39.235Z,20.50
2019-01-10T08:10:10.835Z,15.77
2019-01-10T08:12:39.492Z,18.23
2019-01-10T08:15:11.909Z,13.50
2019-01-10T08:17:40.505Z,18.63
2019-01-10T08:20:09.273Z,18.73
2019-01-10T08:22:37.713Z,39.63
2019-01-10T08:25:08.469Z,52.70
2019-01-10T08:27:36.889Z,44.23
2019-01-10T08:30:14.191Z,37.13
2019-01-10T08:32:42.557Z,25.80
2019-01-10T08:35:12.363Z,23.57
2019-01-10T08:37:40.740Z,21.77
2019-01-10T08:40:09.963Z,15.93
2019-01-10T08:42:38.360Z,17.30
2019-01-10T08:45:08.611Z,25.07
2019-01-10T08:47:36.970Z,14.67
2019-01-10T08:50:11.185Z,17.10
2019-01-10T08:52:39.573Z,16.50
2019-01-10T08:55:07.944Z,10.40
2019-01-10T08:57:36.308Z,15.03
2019-01-10T09:00:09.670Z,20.50
2019-01-10T09:02:37.940Z,13.83
2019-01-10T09:05:06.732Z,14.23
2019-01-10T09:07:35.161Z,15.20
2019-01-10T09:10:04.358Z,28.20
2019-01-10T09:12:32.730Z,18.37
2019-01-10T09:15:01.235Z,20.67
2019-01-10T09:17:29.572Z,19.37
2019-01-10T09:19:57.963Z,20.07
2019-01-10T09:22:26.531Z,24.83
2019-01-10T09:24:54.908Z,24.97
2019-01-10T09:27:23.239Z,22.63
2019-01-10T09:29:51.634Z,37.93
2019-01-10T09:32:19.914Z,27.13
2019-01-10T09:34:48.295Z,29.90
2019-01-10T09:37:16.653Z,24.37
2019-01-10T09:39:44.957Z,29.13
2019-01-10T09:42:13.335Z,22.03
2019-01-10T09:44:41.705Z,19.60
2019-01-10T09:47:09.987Z,20.83
2019-01-10T09:49:38.347Z,21.40
2019-01-10T09:52:06.717Z,26.57
2019-01-10T09:54:35.100Z,23.47
2019-01-10T09:57:03.584Z,22.53
2019-01-10T09:59:32.163Z,22.43
2019-01-10T10:02:00.444Z,18.57
2019-01-10T10:04:28.875Z,20.23
2019-01-10T10:06:57.225Z,17.53
2019-01-10T10:09:25.715Z,24.27
2019-01-10T10:11:54.398Z,22.47
2019-01-10T10:14:22.690Z,21.77
2019-01-10T10:16:51.007Z,27.07
2019-01-10T10:19:19.311Z,23.73
2019-01-10T10:21:47.738Z,21.10
2019-01-10T10:24:16.090Z,22.77
2019-01-10T10:26:44.470Z,26.00
2019-01-10T10:29:12.812Z,22.73
2019-01-10T10:31:41.109Z,15.47
2019-01-10T10:34:09.470Z,14.33
2019-01-10T10:36:37.778Z,19.30
2019-01-10T10:39:07.262Z,22.67
2019-01-10T10:41:35.570Z,20.73
2019-01-10T10:44:04.026Z,28.40
2019-01-10T10:46:32.332Z,21.83
2019-01-10T10:49:00.625Z,27.00
2019-01-10T10:51:28.998Z,27.13
2019-01-10T10:53:57.362Z,22.67
2019-01-10T10:56:25.638Z,30.67
2019-01-10T10:58:53.944Z,30.57
2019-01-10T11:01:22.500Z,26.63
2019-01-10T11:03:51.073Z,30.20
2019-01-10T11:06:19.377Z,35.57
2019-01-10T11:08:47.842Z,30.50
2019-01-10T11:11:16.218Z,30.97
2019-01-10T11:13:44.515Z,27.43
2019-01-10T11:16:12.797Z,23.93
2019-01-10T11:18:41.195Z,19.37
2019-01-10T11:21:09.539Z,24.67
2019-01-10T11:23:37.913Z,23.67
2019-01-10T11:26:07.330Z,26.03
2019-01-10T11:28:35.947Z,22.63
2019-01-10T11:31:04.319Z,30.50
2019-01-10T11:33:52.117Z,25.27
2019-01-10T11:36:20.417Z,21.93
2019-01-10T11:38:48.720Z,33.17
2019-01-10T11:41:17.100Z,21.80
2019-01-10T11:43:45.447Z,26.90
2019-01-10T11:46:19.484Z,25.43
2019-01-10T11:48:43.927Z,23.17
2019-01-10T11:51:12.327Z,24.20
2019-01-10T11:53:40.611Z,23.60
2019-01-10T11:56:08.915Z,20.23
2019-01-10T11:58:37.281Z,17.73
2019-01-10T12:01:05.588Z,16.57
2019-01-10T12:03:33.873Z,18.97
2019-01-10T12:06:03.880Z,40.37
2019-01-10T12:08:32.252Z,26.13
2019-01-10T12:11:00.747Z,19.17
2019-01-10T12:13:29.109Z,22.63
2019-01-10T12:15:57.399Z,27.60
2019-01-10T12:18:25.699Z,20.83
2019-01-10T12:20:54.096Z,22.40
2019-01-10T12:23:22.475Z,23.97
2019-01-10T12:25:50.835Z,19.23
2019-01-10T12:28:19.142Z,21.23
2019-01-10T12:30:47.508Z,21.30
2019-01-10T12:33:15.822Z,21.60
2019-01-10T12:35:44.184Z,21.47
2019-01-10T12:38:12.559Z,25.67
2019-01-10T12:40:40.907Z,19.70
2019-01-10T12:43:09.282Z,17.87
2019-01-10T12:45:37.566Z,20.93
2019-01-10T12:48:05.986Z,27.67
2019-01-10T12:50:34.423Z,20.67
2019-01-10T12:53:02.773Z,24.53
2019-01-10T12:55:31.071Z,24.10
2019-01-10T12:57:59.696Z,22.47
2019-01-10T13:00:28.160Z,22.77
2019-01-10T13:02:56.870Z,21.17
2019-01-10T13:05:25.178Z,15.57
2019-01-10T13:07:53.469Z,17.07
2019-01-10T13:10:21.831Z,14.43
2019-01-10T13:12:50.112Z,15.97
2019-01-10T13:15:20.631Z,13.37
2019-01-10T13:17:48.915Z,18.93
2019-01-10T13:20:17.225Z,15.30
2019-01-10T13:22:45.667Z,11.53
2019-01-10T13:25:16.295Z,17.00
2019-01-10T13:27:44.665Z,15.03
2019-01-10T13:30:24.371Z,23.33
2019-01-10T13:32:53.071Z,15.37
2019-01-10T13:35:21.487Z,15.20
2019-01-10T13:37:49.998Z,15.47
2019-01-10T13:40:18.464Z,12.53
2019-01-10T13:42:46.873Z,15.50
2019-01-10T13:45:16.499Z,13.43
2019-01-10T13:47:46.629Z,14.00
2019-01-10T13:50:18.819Z,17.23
2019-01-10T13:52:47.164Z,13.80
2019-01-10T13:55:17.661Z,13.90
2019-01-10T13:57:46.134Z,14.00
2019-01-10T14:00:25.825Z,13.90
2019-01-10T14:02:54.126Z,15.63
2019-01-10T14:05:22.635Z,17.83
2019-01-10T14:07:50.916Z,16.40
2019-01-10T14:10:19.755Z,12.33
2019-01-10T14:12:48.158Z,19.60
2019-01-10T14:15:27.557Z,16.07
2019-01-10T14:17:56.001Z,17.67
2019-01-10T14:20:24.322Z,16.13
2019-01-10T14:22:52.918Z,13.80
2019-01-10T14:25:21.333Z,10.73
2019-01-10T14:27:49.634Z,14.87
2019-01-10T14:30:23.979Z,14.80
2019-01-10T14:32:52.284Z,15.53
2019-01-10T14:35:20.784Z,11.60
2019-01-10T14:37:49.083Z,11.17
2019-01-10T14:40:18.280Z,18.63
2019-01-10T14:42:47.256Z,15.97
2019-01-10T14:45:17.556Z,17.27
2019-01-10T14:47:45.948Z,12.97
2019-01-10T14:50:15.958Z,14.70
2019-01-10T14:52:44.324Z,19.03
2019-01-10T14:55:14.186Z,16.90
2019-01-10T14:57:42.499Z,19.47
2019-01-10T15:00:16.594Z,11.17
2019-01-10T15:02:44.881Z,14.27
2019-01-10T15:05:13.321Z,13.33
2019-01-10T15:07:41.668Z,13.00
2019-01-10T15:10:11.009Z,10.83
2019-01-10T15:12:39.465Z,12.47
2019-01-10T15:15:13.698Z,12.47
2019-01-10T15:17:42.099Z,11.53
2019-01-10T15:20:19.785Z,13.57
2019-01-10T15:22:48.127Z,14.47
2019-01-10T15:25:16.644Z,12.70
2019-01-10T15:27:44.999Z,13.27
2019-01-10T15:30:37.296Z,13.10
2019-01-10T15:33:05.648Z,11.47
2019-01-10T15:35:34.042Z,13.77
2019-01-10T15:38:02.573Z,11.10
2019-01-10T15:40:31.206Z,10.70
2019-01-10T15:42:59.514Z,11.73
2019-01-10T15:45:27.882Z,9.40
2019-01-10T15:47:56.187Z,9.37
2019-01-10T15:50:24.587Z,8.57
2019-01-10T15:52:52.963Z,8.93
2019-01-10T15:55:21.706Z,11.07
2019-01-10T15:57:50.065Z,9.33
2019-01-10T16:00:25.371Z,9.93
2019-01-10T16:02:53.735Z,26.03
2019-01-10T16:05:22.065Z,14.77
2019-01-10T16:07:50.370Z,16.17
2019-01-10T16:10:20.106Z,15.80
2019-01-10T16:12:49.651Z,13.13
2019-01-10T16:15:20.321Z,10.20
2019-01-10T16:17:48.624Z,8.77
2019-01-10T16:20:16.922Z,14.47
2019-01-10T16:22:45.513Z,11.37
2019-01-10T16:25:15.891Z,9.47
2019-01-10T16:27:44.198Z,11.40
2019-01-10T16:30:21.133Z,10.00
2019-01-10T16:32:49.506Z,13.50
2019-01-10T16:35:17.794Z,11.23
2019-01-10T16:37:46.100Z,12.03
2019-01-10T16:40:16.223Z,15.90
2019-01-10T16:42:44.516Z,16.30
2019-01-10T16:45:21.211Z,17.87
2019-01-10T16:47:49.518Z,13.43
2019-01-10T16:50:17.871Z,13.00
2019-01-10T16:52:46.185Z,14.73
2019-01-10T16:55:14.782Z,15.07
2019-01-10T16:57:43.169Z,12.80
2019-01-10T17:00:20.872Z,16.63
2019-01-10T17:02:49.206Z,18.53
2019-01-10T17:05:17.618Z,16.87
2019-01-10T17:07:45.907Z,16.07
2019-01-10T17:10:14.201Z,14.90
2019-01-10T17:12:42.728Z,15.57
2019-01-10T17:15:15.181Z,14.27
2019-01-10T17:17:43.785Z,11.10
2019-01-10T17:20:17.537Z,13.63
2019-01-10T17:22:45.900Z,19.80
2019-01-10T17:25:14.319Z,16.57
2019-01-10T17:27:42.835Z,22.30
2019-01-10T17:30:17.497Z,19.03
2019-01-10T17:32:45.875Z,21.10
2019-01-10T17:35:20.159Z,19.93
2019-01-10T17:37:48.442Z,19.63
2019-01-10T17:40:19.590Z,23.70
2019-01-10T17:42:48.083Z,27.63
2019-01-10T17:45:19.126Z,23.43
2019-01-10T17:47:47.426Z,17.13
2019-01-10T17:50:19.381Z,24.83
2019-01-10T17:52:47.757Z,19.90
2019-01-10T17:55:16.252Z,19.07
2019-01-10T17:57:44.622Z,20.83
2019-01-10T18:00:16.246Z,25.23
2019-01-10T18:02:44.536Z,24.37
2019-01-10T18:05:13.093Z,25.27
2019-01-10T18:07:41.714Z,25.97
2019-01-10T18:10:16.088Z,19.80
2019-01-10T18:12:44.451Z,18.67
2019-01-10T18:15:15.284Z,24.93
2019-01-10T18:17:43.573Z,16.07
2019-01-10T18:20:15.154Z,20.40
2019-01-10T18:22:43.560Z,16.83
2019-01-10T18:25:12.386Z,22.43
2019-01-10T18:27:40.746Z,22.90
2019-01-10T18:30:14.797Z,23.50
2019-01-10T18:32:43.313Z,23.17
2019-01-10T18:35:11.770Z,23.47
2019-01-10T18:37:40.280Z,19.33
2019-01-10T18:40:11.114Z,21.80
2019-01-10T18:42:39.404Z,20.93
2019-01-10T18:45:15.631Z,24.23
2019-01-10T18:47:44.003Z,24.40
2019-01-10T18:50:21.752Z,18.80
2019-01-10T18:52:50.154Z,16.17
2019-01-10T18:55:19.021Z,14.33
2019-01-10T18:57:47.361Z,17.57
2019-01-10T19:00:23.829Z,26.17
2019-01-10T19:02:52.203Z,17.97
2019-01-10T19:05:23.290Z,18.87
2019-01-10T19:07:51.655Z,23.33
2019-01-10T19:10:23.449Z,17.67
2019-01-10T19:12:51.761Z,20.57
2019-01-10T19:15:20.158Z,24.33
2019-01-10T19:17:48.965Z,21.70
2019-01-10T19:20:22.640Z,24.17
2019-01-10T19:22:51.029Z,24.93
2019-01-10T19:25:32.377Z,60.60
2019-01-10T19:28:00.749Z,30.43
2019-01-10T19:30:30.351Z,33.53
2019-01-10T19:33:01.513Z,31.57
2019-01-10T19:35:30.051Z,36.37
2019-01-10T19:37:58.419Z,38.67
2019-01-10T19:40:26.789Z,19.63
2019-01-10T19:42:55.292Z,20.87
2019-01-10T19:45:23.661Z,16.57
2019-01-10T19:47:52.032Z,17.87
2019-01-10T19:50:22.998Z,19.90
2019-01-10T19:52:51.316Z,20.97
2019-01-10T19:55:20.989Z,23.40
2019-01-10T19:57:49.310Z,26.97
2019-01-10T20:00:20.961Z,24.93
2019-01-10T20:02:49.360Z,21.57
2019-01-10T20:05:17.776Z,20.77
2019-01-10T20:07:46.164Z,25.87
2019-01-10T20:10:15.707Z,24.83
2019-01-10T20:12:44.022Z,25.30
2019-01-10T20:15:12.490Z,22.30
2019-01-10T20:17:40.966Z,26.77
2019-01-10T20:20:12.504Z,30.43
2019-01-10T20:22:40.828Z,25.10
2019-01-10T20:25:09.190Z,24.60
2019-01-10T20:27:37.502Z,24.87
2019-01-10T20:30:09.125Z,25.67
2019-01-10T20:32:37.492Z,26.67
2019-01-10T20:35:06.222Z,32.37
2019-01-10T20:37:34.531Z,26.43
2019-01-10T20:40:03.046Z,26.37
2019-01-10T20:42:31.445Z,33.90
2019-01-10T20:44:59.774Z,25.13
2019-01-10T20:47:28.134Z,26.67
2019-01-10T20:49:56.549Z,32.70
2019-01-10T20:52:24.853Z,32.63
2019-01-10T20:54:53.327Z,24.77
2019-01-10T20:57:21.681Z,24.33
2019-01-10T20:59:50.113Z,24.30
2019-01-10T21:02:18.469Z,28.77
2019-01-10T21:04:46.783Z,26.10
2019-01-10T21:07:15.227Z,30.93
2019-01-10T21:09:43.705Z,24.63
2019-01-10T21:12:12.071Z,23.67
2019-01-10T21:14:40.459Z,24.63
2019-01-10T21:17:08.805Z,25.53
2019-01-10T21:19:37.131Z,23.33
2019-01-10T21:22:05.423Z,27.20
2019-01-10T21:24:33.785Z,24.80
2019-01-10T21:27:02.079Z,25.63
2019-01-10T21:29:30.471Z,29.83
2019-01-10T21:31:58.837Z,28.00
2019-01-10T21:34:27.138Z,35.80
2019-01-10T21:36:55.674Z,29.17
2019-01-10T21:39:24.083Z,30.73
2019-01-10T21:41:52.408Z,29.60
2019-01-10T21:44:20.940Z,29.47
2019-01-10T21:46:49.799Z,26.40
2019-01-10T21:49:18.090Z,34.43
2019-01-10T21:51:46.534Z,37.53
2019-01-10T21:54:14.920Z,30.47
2019-01-10T21:56:44.768Z,31.13
2019-01-10T21:59:13.166Z,39.57
2019-01-10T22:01:41.612Z,29.63
2019-01-10T22:04:09.984Z,33.47
2019-01-10T22:06:38.346Z,35.73
2019-01-10T22:09:07.254Z,32.53
2019-01-10T22:11:35.579Z,34.70
2019-01-10T22:14:04.014Z,37.10
2019-01-10T22:16:32.393Z,32.73
2019-01-10T22:19:00.758Z,37.50
2019-01-10T22:21:29.133Z,38.90
2019-01-10T22:23:58.172Z,43.87
2019-01-10T22:26:26.554Z,32.83
2019-01-10T22:28:55.329Z,33.53
2019-01-10T22:31:23.939Z,38.60
2019-01-10T22:33:52.516Z,35.90
2019-01-10T22:36:21.084Z,40.07
2019-01-10T22:38:49.379Z,40.33
2019-01-10T22:41:17.760Z,36.90
2019-01-10T22:43:46.087Z,41.70
2019-01-10T22:46:16.233Z,47.30
2019-01-10T22:48:47.865Z,44.10
2019-01-10T22:51:14.561Z,41.20
2019-01-10T22:53:42.865Z,39.87
2019-01-10T22:56:11.239Z,42.57
2019-01-10T22:58:39.521Z,49.83
2019-01-10T23:01:10.312Z,44.30
2019-01-10T23:03:38.810Z,44.87
2019-01-10T23:06:07.196Z,45.57
2019-01-10T23:08:39.819Z,48.10
2019-01-10T23:11:13.025Z,50.87
2019-01-10T23:13:41.313Z,56.13
2019-01-10T23:16:09.705Z,51.73
2019-01-10T23:18:40.543Z,56.10
2019-01-10T23:21:09.005Z,47.93
2019-01-10T23:23:37.305Z,48.83
2019-01-10T23:26:05.595Z,51.73
2019-01-10T23:28:37.499Z,49.73
2019-01-10T23:31:07.423Z,51.03
2019-01-10T23:33:35.727Z,52.10
2019-01-10T23:36:04.364Z,56.83
2019-01-10T23:38:32.678Z,55.23
2019-01-10T23:41:01.265Z,57.60
2019-01-10T23:43:29.635Z,60.47
2019-01-10T23:45:58.001Z,54.37
2019-01-10T23:48:26.465Z,61.23
2019-01-10T23:50:54.834Z,58.97
2019-01-10T23:53:23.187Z,55.30
2019-01-10T23:55:51.495Z,60.13
2019-01-10T23:58:19.855Z,58.23
